Time;durP1;ratioP1;P1;durP2;ratioP2;P2;SDS_P1;SDS_P2;PMS_P1;PMS_P2;Temp;Humidity;BMP_temperature;BMP_pressure;BME280_temperature;BME280_humidity;BME280_pressure;Samples;Min_cycle;Max_cycle;Signal;HPM_P1;HPM_P2
2023/02/21 02:15:20;;;;;;;;;;;;;;;24.11;36.89;95402.66;5049903;28;1280;-71
2023/02/21 02:17:46;;;;;;;;;;;;;;;24.12;36.90;95396.25;5050268;28;1374;-71
2023/02/21 02:20:25;;;;;;;;;;;;;;;24.14;36.95;95394.19;5048051;28;1288;-73
2023/02/21 02:23:08;;;;;;;;;;;;;;;24.11;37.26;95383.91;5044298;28;1248;-72
2023/02/21 02:25:38;;;;;;;;;;;;;;;24.07;37.05;95388.03;5047949;28;1965;-72
2023/02/21 02:28:24;;;;;;;;;;;;;;;24.14;36.80;95391.50;5052425;28;1193;-73
2023/02/21 02:30:49;;;;;;;;;;;;;;;24.16;37.03;95392.06;5049839;28;1325;-72
2023/02/21 02:33:41;;;;;;;;;;;;;;;24.14;36.93;95384.28;5050927;28;1003;-72
2023/02/21 02:36:12;;;;;;;;;;;;;;;24.13;37.12;95379.94;5018445;28;1285;-72
2023/02/21 02:38:44;;;;;;;;;;;;;;;24.13;37.14;95381.78;5038638;28;1206;-72
2023/02/21 02:41:35;;;;;;;;;;;;;;;24.18;37.33;95381.97;5047900;28;1551;-72
2023/02/21 02:44:05;;;;;;;;;;;;;;;24.20;37.06;95385.25;5037495;28;1263;-72
2023/02/21 02:46:32;;;;;;;;;;;;;;;24.22;37.05;95384.00;5052284;28;1902;-71
2023/02/21 02:49:02;;;;;;;;;;;;;;;24.22;36.94;95383.19;5041077;28;1280;-72
2023/02/21 02:51:28;;;;;;;;;;;;;;;24.23;36.99;95384.81;5046643;28;1397;-73
2023/02/21 02:53:53;;;;;;;;;;;;;;;24.20;36.92;95378.03;5040863;28;1280;-73
2023/02/21 02:56:22;;;;;;;;;;;;;;;24.22;37.14;95373.28;5056525;28;1192;-73
2023/02/21 02:58:59;;;;;;;;;;;;;;;24.18;36.97;95380.09;5063102;28;1041;-71
2023/02/21 03:01:24;;;;;;;;;;;;;;;24.16;37.20;95381.34;5049709;28;1392;-73
2023/02/21 03:04:08;;;;;;;;;;;;;;;24.17;37.23;95383.81;5049993;28;1499;-73
2023/02/21 03:06:43;;;;;;;;;;;;;;;24.16;37.25;95394.75;5039806;28;1957;-73
2023/02/21 03:09:08;;;;;;;;;;;;;;;24.16;37.28;95392.06;5046373;28;1212;-73
2023/02/21 03:11:36;;;;;;;;;;;;;;;24.13;37.21;95390.66;5045223;28;1263;-73
2023/02/21 03:14:23;;;;;;;;;;;;;;;24.13;37.19;95387.16;5052786;28;1277;-73
2023/02/21 03:16:56;;;;;;;;;;;;;;;24.14;37.25;95399.53;5042914;28;1342;-73
2023/02/21 03:19:26;;;;;;;;;;;;;;;24.10;37.29;95399.13;5046210;28;1483;-73
2023/02/21 03:21:56;;;;;;;;;;;;;;;24.11;37.45;95394.63;5034605;28;1310;-73
2023/02/21 03:24:22;;;;;;;;;;;;;;;24.15;37.30;95379.72;5063405;28;1271;-73
2023/02/21 03:26:50;;;;;;;;;;;;;;;24.12;37.50;95383.66;5053373;28;1894;-73
2023/02/21 03:29:16;;;;;;;;;;;;;;;24.13;37.13;95379.94;5047777;28;1218;-73
2023/02/21 03:31:51;;;;;;;;;;;;;;;24.13;37.17;95379.94;5051555;28;1254;-73
2023/02/21 03:34:16;;;;;;;;;;;;;;;24.14;37.18;95372.72;5052382;28;1368;-73
2023/02/21 03:36:42;;;;;;;;;;;;;;;24.11;37.42;95365.94;5068665;28;1413;-73
2023/02/21 03:39:07;;;;;;;;;;;;;;;24.10;37.22;95363.47;5073381;28;1467;-72
2023/02/21 03:41:32;;;;;;;;;;;;;;;24.06;37.30;95367.63;5076028;28;1448;-73
2023/02/21 03:43:58;;;;;;;;;;;;;;;24.06;37.47;95376.50;5066347;28;1154;-73
2023/02/21 03:46:23;;;;;;;;;;;;;;;24.11;37.39;95368.63;5062692;28;1969;-72
2023/02/21 03:48:49;;;;;;;;;;;;;;;24.12;37.33;95366.75;5056427;28;1444;-73
2023/02/21 03:51:14;;;;;;;;;;;;;;;24.10;37.32;95376.88;5056362;28;1521;-73
2023/02/21 03:53:39;;;;;;;;;;;;;;;24.10;37.50;95387.59;5057918;28;1408;-73
2023/02/21 03:56:05;;;;;;;;;;;;;;;24.12;37.30;95382.84;5046893;28;1349;-73
2023/02/21 03:58:30;;;;;;;;;;;;;;;24.13;37.36;95387.16;5055911;28;1408;-73
2023/02/21 04:00:56;;;;;;;;;;;;;;;24.12;37.67;95388.19;5063377;28;1396;-73
2023/02/21 04:03:21;;;;;;;;;;;;;;;24.14;37.70;95394.19;5055752;28;1416;-75
2023/02/21 04:05:47;;;;;;;;;;;;;;;24.14;37.28;95386.13;5054135;28;1902;-71
2023/02/21 04:08:12;;;;;;;;;;;;;;;24.17;37.30;95399.91;5049024;28;1230;-73
2023/02/21 04:10:37;;;;;;;;;;;;;;;24.16;37.06;95386.72;5059727;28;1464;-73
2023/02/21 04:13:03;;;;;;;;;;;;;;;24.18;37.08;95392.69;5056278;28;1274;-70
2023/02/21 04:15:28;;;;;;;;;;;;;;;24.14;37.06;95403.03;5049668;28;1468;-70
2023/02/21 04:17:53;;;;;;;;;;;;;;;24.12;36.92;95398.94;5045081;28;1216;-70
2023/02/21 04:20:18;;;;;;;;;;;;;;;24.09;36.76;95408.22;5056594;28;1681;-71
2023/02/21 04:22:44;;;;;;;;;;;;;;;24.08;36.95;95397.69;5041631;28;1456;-70
2023/02/21 04:25:09;;;;;;;;;;;;;;;24.08;36.82;95408.44;5046740;28;1404;-69
2023/02/21 04:27:34;;;;;;;;;;;;;;;24.07;36.60;95409.47;5051696;28;1961;-70
2023/02/21 04:30:00;;;;;;;;;;;;;;;24.05;36.72;95407.03;5044735;28;1404;-70
2023/02/21 04:32:25;;;;;;;;;;;;;;;24.06;36.61;95410.53;5054520;28;1297;-70
2023/02/21 04:34:51;;;;;;;;;;;;;;;24.03;36.41;95414.47;5047805;28;1202;-70
2023/02/21 04:37:16;;;;;;;;;;;;;;;23.99;36.31;95419.44;5045951;28;1034;-70
2023/02/21 04:39:42;;;;;;;;;;;;;;;24.01;36.36;95425.38;5039124;28;1171;-69
2023/02/21 04:42:08;;;;;;;;;;;;;;;24.00;36.11;95421.06;5049215;28;1313;-69
2023/02/21 04:44:33;;;;;;;;;;;;;;;24.00;36.40;95431.78;5058757;28;1428;-69
2023/02/21 04:46:58;;;;;;;;;;;;;;;23.42;27.92;95417.66;5039859;28;1906;-70
2023/02/21 04:49:26;;;;;;;;;;;;;;;20.56;24.77;95414.66;5052371;28;1212;-70
2023/02/21 04:51:51;;;;;;;;;;;;;;;18.55;25.68;95429.47;5027272;28;1200;-69
2023/02/21 04:54:17;;;;;;;;;;;;;;;17.76;26.69;95418.41;5038892;28;1268;-70
2023/02/21 04:56:42;;;;;;;;;;;;;;;17.29;26.80;95417.53;5039686;28;1076;-69
2023/02/21 04:59:07;;;;;;;;;;;;;;;16.76;27.55;95403.22;5053232;28;1135;-68
2023/02/21 05:01:33;;;;;;;;;;;;;;;17.91;29.77;95407.84;5058546;28;1242;-68
2023/02/21 05:03:58;;;;;;;;;;;;;;;18.65;28.51;95395.47;5042550;28;1435;-69
2023/02/21 05:06:25;;;;;;;;;;;;;;;17.54;26.68;95394.31;5051357;28;1914;-68
2023/02/21 05:08:50;;;;;;;;;;;;;;;17.67;27.36;95385.78;5053178;28;1243;-68
2023/02/21 05:11:16;;;;;;;;;;;;;;;17.50;27.59;95386.88;5052049;28;1172;-68
2023/02/21 05:13:42;;;;;;;;;;;;;;;17.13;28.12;95363.78;5045113;28;1475;-65
2023/02/21 05:16:07;;;;;;;;;;;;;;;18.12;29.63;95383.25;5040859;28;1400;-67
2023/02/21 05:18:33;;;;;;;;;;;;;;;19.35;29.44;95382.63;5059300;28;1261;-67
2023/02/21 05:20:58;;;;;;;;;;;;;;;20.17;29.23;95384.84;5054269;28;1391;-67
2023/02/21 05:23:33;;;;;;;;;;;;;;;20.62;29.13;95381.91;5053819;28;930;-68
2023/02/21 05:26:02;;;;;;;;;;;;;;;21.01;28.81;95378.59;5042870;28;1897;-68
2023/02/21 05:28:27;;;;;;;;;;;;;;;21.23;29.08;95379.31;5053752;28;1404;-68
2023/02/21 05:30:53;;;;;;;;;;;;;;;21.37;28.93;95385.50;5046474;28;861;-68
2023/02/21 05:33:18;;;;;;;;;;;;;;;21.46;29.00;95380.81;5033690;28;1007;-69
2023/02/21 05:35:46;;;;;;;;;;;;;;;21.54;29.08;95380.63;5033591;28;881;-69
2023/02/21 05:38:11;;;;;;;;;;;;;;;21.61;28.83;95386.81;5023743;28;1180;-69
2023/02/21 05:40:37;;;;;;;;;;;;;;;21.71;29.17;95395.25;5033718;28;915;-69
2023/02/21 05:43:02;;;;;;;;;;;;;;;21.78;29.26;95398.75;5032001;28;1202;-69
2023/02/21 05:45:27;;;;;;;;;;;;;;;21.84;29.20;95389.09;5033437;28;873;-69
2023/02/21 05:47:57;;;;;;;;;;;;;;;21.89;29.33;95396.53;5028975;28;1957;-68
2023/02/21 05:50:22;;;;;;;;;;;;;;;21.95;29.50;95395.69;5028559;28;1086;-69
2023/02/21 05:52:47;;;;;;;;;;;;;;;22.01;29.56;95394.88;5033796;28;944;-69
2023/02/21 05:55:13;;;;;;;;;;;;;;;22.06;29.70;95397.75;5033999;28;867;-69
2023/02/21 05:57:38;;;;;;;;;;;;;;;22.11;29.77;95400.63;5033757;28;781;-69
2023/02/21 06:00:04;;;;;;;;;;;;;;;22.14;29.82;95394.88;5023771;28;1154;-68
2023/02/21 06:02:29;;;;;;;;;;;;;;;22.18;29.71;95406.00;5033260;28;1190;-69
2023/02/21 06:04:54;;;;;;;;;;;;;;;22.24;29.81;95399.84;5033032;28;1217;-68
2023/02/21 06:07:19;;;;;;;;;;;;;;;22.28;29.72;95402.91;5033232;28;1906;-69
2023/02/21 06:09:45;;;;;;;;;;;;;;;22.32;29.78;95402.31;5032323;28;1323;-69
2023/02/21 06:12:10;;;;;;;;;;;;;;;22.35;29.95;95414.44;5023300;28;1028;-66
2023/02/21 06:14:35;;;;;;;;;;;;;;;22.37;30.06;95407.84;5033440;28;809;-66
2023/02/21 06:17:01;;;;;;;;;;;;;;;22.40;29.90;95420.00;5032557;28;1484;-67
2023/02/21 06:19:26;;;;;;;;;;;;;;;22.44;29.95;95421.22;5033537;28;814;-67
2023/02/21 06:21:52;;;;;;;;;;;;;;;22.48;30.12;95422.44;5030736;28;814;-68
2023/02/21 06:24:17;;;;;;;;;;;;;;;22.48;30.07;95416.25;5025550;28;1096;-69
2023/02/21 06:26:43;;;;;;;;;;;;;;;22.52;29.95;95415.66;5032902;28;1953;-69
2023/02/21 06:29:09;;;;;;;;;;;;;;;22.56;30.09;95419.53;5033305;28;846;-69
2023/02/21 06:31:35;;;;;;;;;;;;;;;22.62;30.00;95418.69;5033239;28;865;-69
2023/02/21 06:34:00;;;;;;;;;;;;;;;22.66;30.13;95424.47;5023708;28;1161;-68
2023/02/21 06:36:26;;;;;;;;;;;;;;;22.68;29.87;95417.91;5032692;28;1160;-69
2023/02/21 06:38:53;;;;;;;;;;;;;;;22.72;29.86;95426.31;5033045;28;948;-69
2023/02/21 06:41:20;;;;;;;;;;;;;;;22.74;29.95;95421.59;5033196;28;805;-69
2023/02/21 06:43:45;;;;;;;;;;;;;;;22.77;30.08;95441.72;5033012;28;853;-69
2023/02/21 06:46:14;;;;;;;;;;;;;;;22.80;30.23;95436.78;5023246;28;1890;-68
2023/02/21 06:48:40;;;;;;;;;;;;;;;22.83;30.06;95432.88;5033754;28;813;-69
2023/02/21 06:51:09;;;;;;;;;;;;;;;22.84;30.07;95437.19;5031828;28;1202;-69
2023/02/21 06:53:34;;;;;;;;;;;;;;;22.86;29.82;95427.13;5032563;28;849;-69
2023/02/21 06:55:59;;;;;;;;;;;;;;;22.87;30.09;95426.88;5031791;28;1185;-69
2023/02/21 06:58:24;;;;;;;;;;;;;;;22.88;30.00;95428.56;5028732;28;1192;-69
2023/02/21 07:00:50;;;;;;;;;;;;;;;22.92;29.83;95428.94;5035352;28;1307;-68
2023/02/21 07:03:15;;;;;;;;;;;;;;;22.92;29.89;95418.25;5036671;28;1264;-68
2023/02/21 07:05:40;;;;;;;;;;;;;;;22.94;30.06;95426.88;5036811;28;915;-68
2023/02/21 07:08:05;;;;;;;;;;;;;;;22.97;30.02;95431.00;5027401;28;1918;-68
2023/02/21 07:10:31;;;;;;;;;;;;;;;23.01;30.13;95421.53;5036449;28;948;-68
2023/02/21 07:12:56;;;;;;;;;;;;;;;23.04;30.07;95419.25;5036816;28;884;-68
2023/02/21 07:15:21;;;;;;;;;;;;;;;23.07;30.07;95426.88;5036310;28;872;-68
2023/02/21 07:17:46;;;;;;;;;;;;;;;23.11;29.94;95422.75;5035639;28;1190;-68
2023/02/21 07:20:12;;;;;;;;;;;;;;;23.13;29.98;95431.38;5026624;28;1086;-69
2023/02/21 07:22:37;;;;;;;;;;;;;;;23.18;29.86;95427.25;5036328;28;919;-68
2023/02/21 07:25:02;;;;;;;;;;;;;;;23.20;29.92;95422.50;5036620;28;913;-70
2023/02/21 07:27:28;;;;;;;;;;;;;;;23.21;29.96;95422.28;5036197;28;1906;-69
2023/02/21 07:29:53;;;;;;;;;;;;;;;23.24;29.83;95419.19;5036132;28;904;-69
2023/02/21 07:32:18;;;;;;;;;;;;;;;23.25;29.88;95412.81;5026084;28;1190;-69
2023/02/21 07:34:44;;;;;;;;;;;;;;;23.29;29.77;95413.22;5036290;28;895;-69
2023/02/21 07:37:10;;;;;;;;;;;;;;;23.27;29.66;95407.22;5036083;28;852;-69
2023/02/21 07:39:35;;;;;;;;;;;;;;;23.27;29.99;95404.56;5035001;28;1295;-69
2023/02/21 07:42:00;;;;;;;;;;;;;;;23.31;29.97;95400.44;5028853;28;1181;-69
2023/02/21 07:44:26;;;;;;;;;;;;;;;23.33;29.82;95384.97;5032217;28;955;-69
2023/02/21 07:46:51;;;;;;;;;;;;;;;23.36;29.86;95397.91;5035733;28;1914;-68
2023/02/21 07:49:16;;;;;;;;;;;;;;;23.36;29.89;95392.56;5034819;28;1290;-69
2023/02/21 07:51:42;;;;;;;;;;;;;;;23.38;29.97;95385.16;5035694;28;939;-69
2023/02/21 07:54:07;;;;;;;;;;;;;;;23.41;29.84;95394.63;5025968;28;1059;-69
2023/02/21 07:56:32;;;;;;;;;;;;;;;23.44;29.70;95388.81;5035460;28;904;-69
2023/02/21 07:58:57;;;;;;;;;;;;;;;23.43;29.75;95387.19;5034692;28;1238;-69
2023/02/21 08:01:23;;;;;;;;;;;;;;;23.43;29.86;95382.66;5035442;28;829;-69
2023/02/21 08:03:49;;;;;;;;;;;;;;;23.43;30.00;95376.47;5035656;28;1193;-69
2023/02/21 08:06:14;;;;;;;;;;;;;;;23.44;29.76;95381.59;5025176;28;1910;-70
2023/02/21 08:08:39;;;;;;;;;;;;;;;23.44;29.92;95370.91;5035209;28;873;-69
2023/02/21 08:11:05;;;;;;;;;;;;;;;23.45;29.58;95380.59;5035368;28;936;-70
2023/02/21 08:13:30;;;;;;;;;;;;;;;23.44;29.75;95373.56;5035214;28;896;-70
2023/02/21 08:15:55;;;;;;;;;;;;;;;23.45;29.71;95385.94;5030297;28;1035;-69
2023/02/21 08:18:23;;;;;;;;;;;;;;;23.45;29.87;95383.28;5030321;28;1048;-69
2023/02/21 08:20:52;;;;;;;;;;;;;;;23.44;29.78;95378.94;5035273;28;850;-69
2023/02/21 08:23:18;;;;;;;;;;;;;;;23.46;29.83;95379.53;5033986;28;1389;-68
2023/02/21 08:25:44;;;;;;;;;;;;;;;23.49;29.72;95381.78;5034883;28;833;-68
2023/02/21 08:28:09;;;;;;;;;;;;;;;23.50;29.88;95372.72;5025075;28;1961;-68
2023/02/21 08:30:35;;;;;;;;;;;;;;;23.52;29.64;95375.19;5034276;28;1329;-69
2023/02/21 08:33:00;;;;;;;;;;;;;;;23.56;29.64;95371.03;5033987;28;1321;-68
2023/02/21 08:35:26;;;;;;;;;;;;;;;23.58;29.78;95364.44;5034993;28;806;-69
2023/02/21 08:37:55;;;;;;;;;;;;;;;23.59;29.79;95357.22;5033582;28;1499;-69
2023/02/21 08:40:21;;;;;;;;;;;;;;;23.61;29.54;95365.84;5024798;28;1143;-69
2023/02/21 08:42:50;;;;;;;;;;;;;;;23.62;29.54;95364.00;5034783;28;844;-68
2023/02/21 08:45:17;;;;;;;;;;;;;;;23.61;29.66;95359.69;5033344;28;1311;-69
2023/02/21 08:47:43;;;;;;;;;;;;;;;23.63;29.80;95354.94;5034869;28;1898;-69
2023/02/21 08:50:08;;;;;;;;;;;;;;;23.64;29.63;95353.91;5028332;28;1196;-69
2023/02/21 08:52:33;;;;;;;;;;;;;;;23.63;29.55;95358.44;5029874;28;1108;-68
2023/02/21 08:54:58;;;;;;;;;;;;;;;23.64;29.74;95361.94;5034385;28;909;-69
2023/02/21 08:57:24;;;;;;;;;;;;;;;23.63;29.79;95358.44;5034715;28;923;-68
2023/02/21 08:59:49;;;;;;;;;;;;;;;23.64;29.60;95353.91;5033121;28;1323;-69
2023/02/21 09:02:15;;;;;;;;;;;;;;;23.65;29.81;95359.03;5024503;28;1268;-68
2023/02/21 09:04:41;;;;;;;;;;;;;;;23.66;29.96;95351.81;5034080;28;1193;-68
2023/02/21 09:07:06;;;;;;;;;;;;;;;23.67;29.75;95350.78;5034147;28;1910;-68
2023/02/21 09:09:32;;;;;;;;;;;;;;;23.68;29.61;95352.41;5034422;28;852;-69
2023/02/21 09:11:57;;;;;;;;;;;;;;;23.67;29.60;95340.88;5034146;28;813;-70
2023/02/21 09:14:22;;;;;;;;;;;;;;;23.66;29.53;95346.47;5024211;28;1095;-69
2023/02/21 09:16:47;;;;;;;;;;;;;;;23.67;29.66;95337.38;5034532;28;848;-68
2023/02/21 09:19:13;;;;;;;;;;;;;;;23.66;29.67;95344.59;5034336;28;805;-68
2023/02/21 09:21:44;;;;;;;;;;;;;;;23.66;29.84;95341.13;5033844;28;837;-69
2023/02/21 09:24:10;;;;;;;;;;;;;;;23.67;29.67;95334.72;5029004;28;1226;-68
2023/02/21 09:26:35;;;;;;;;;;;;;;;23.67;29.64;95329.34;5028635;28;1898;-69
2023/02/21 09:29:00;;;;;;;;;;;;;;;23.67;29.81;95335.53;5033800;28;901;-69
2023/02/21 09:31:26;;;;;;;;;;;;;;;23.68;29.83;95322.94;5034041;28;846;-68
2023/02/21 09:33:51;;;;;;;;;;;;;;;23.67;29.81;95329.34;5033485;28;938;-69
2023/02/21 09:36:22;;;;;;;;;;;;;;;23.69;29.94;95329.97;5023042;28;1605;-69
2023/02/21 09:38:47;;;;;;;;;;;;;;;23.69;29.53;95316.56;5032404;28;1187;-69
2023/02/21 09:41:13;;;;;;;;;;;;;;;23.70;29.64;95312.84;5034211;28;869;-69
2023/02/21 09:43:40;;;;;;;;;;;;;;;23.70;29.92;95310.16;5033831;28;873;-69
2023/02/21 09:46:25;;;;;;;;;;;;;;;23.72;29.67;95311.63;5033401;28;1902;-69
2023/02/21 09:48:52;;;;;;;;;;;;;;;23.71;29.66;95304.63;5023480;28;1192;-69
2023/02/21 09:51:17;;;;;;;;;;;;;;;23.72;29.79;95311.63;5033622;28;920;-69
2023/02/21 09:53:45;;;;;;;;;;;;;;;23.72;29.64;95306.25;5033779;28;908;-69
2023/02/21 09:56:32;;;;;;;;;;;;;;;23.72;29.63;95311.63;5033588;28;889;-68
2023/02/21 09:58:58;;;;;;;;;;;;;;;23.72;29.86;95300.09;5022113;28;1287;-69
2023/02/21 10:01:46;;;;;;;;;;;;;;;23.71;29.88;95293.09;5033565;28;899;-69
2023/02/21 10:04:21;;;;;;;;;;;;;;;23.69;29.88;95295.13;5033061;28;1349;-69
2023/02/21 10:07:04;;;;;;;;;;;;;;;23.69;29.85;95285.25;5033531;28;1977;-70
2023/02/21 10:09:53;;;;;;;;;;;;;;;23.70;29.74;95283.38;5027217;28;1191;-70
2023/02/21 10:12:18;;;;;;;;;;;;;;;23.69;29.77;95274.53;5032986;28;963;-70
2023/02/21 10:14:58;;;;;;;;;;;;;;;23.69;29.95;95268.34;5032152;28;1191;-70
2023/02/21 10:17:34;;;;;;;;;;;;;;;23.69;29.83;95263.00;5033727;28;829;-69
2023/02/21 10:20:03;;;;;;;;;;;;;;;23.69;29.91;95263.00;5033418;28;946;-70
2023/02/21 10:22:32;;;;;;;;;;;;;;;23.69;30.07;95258.44;5023364;28;1173;-70
2023/02/21 10:24:57;;;;;;;;;;;;;;;23.70;29.92;95256.59;5033101;28;884;-69
2023/02/21 10:27:29;;;;;;;;;;;;;;;23.70;29.77;95248.56;5032958;28;1965;-69
2023/02/21 10:29:54;;;;;;;;;;;;;;;23.69;29.80;95246.94;5032496;28;909;-70
2023/02/21 10:32:21;;;;;;;;;;;;;;;23.69;29.63;95246.94;5026796;28;1449;-69
2023/02/21 10:34:47;;;;;;;;;;;;;;;23.69;29.75;95241.56;5028224;28;979;-69
2023/02/21 10:37:27;;;;;;;;;;;;;;;23.68;29.96;95234.56;5033063;28;930;-70
2023/02/21 10:39:55;;;;;;;;;;;;;;;23.67;29.94;95224.88;5033114;28;1055;-70
2023/02/21 10:42:33;;;;;;;;;;;;;;;23.68;29.81;95223.84;5032968;28;801;-70
2023/02/21 10:44:59;;;;;;;;;;;;;;;23.67;29.78;95215.00;5023099;28;1047;-69
2023/02/21 10:47:39;;;;;;;;;;;;;;;23.68;29.95;95213.13;5032875;28;1957;-70
2023/02/21 10:50:05;;;;;;;;;;;;;;;23.68;29.85;95213.13;5033114;28;816;-70
2023/02/21 10:52:45;;;;;;;;;;;;;;;23.67;29.93;95214.19;5032577;28;897;-70
2023/02/21 10:55:15;;;;;;;;;;;;;;;23.67;29.76;95208.81;5026188;28;1252;-69
2023/02/21 10:57:45;;;;;;;;;;;;;;;23.67;29.87;95200.78;5029818;28;1213;-70
2023/02/21 11:00:34;;;;;;;;;;;;;;;23.68;29.80;95191.69;5032828;28;817;-69
2023/02/21 11:03:04;;;;;;;;;;;;;;;23.68;29.79;95186.34;5029631;28;1262;-69
2023/02/21 11:05:30;;;;;;;;;;;;;;;23.66;30.01;95180.41;5032476;28;1218;-69
2023/02/21 11:07:58;;;;;;;;;;;;;;;23.67;29.86;95168.63;5022916;28;1977;-69
2023/02/21 11:10:26;;;;;;;;;;;;;;;23.67;29.86;95157.94;5032976;28;888;-69
2023/02/21 11:13:00;;;;;;;;;;;;;;;23.67;29.84;95153.38;5032764;28;917;-69
2023/02/21 11:15:26;;;;;;;;;;;;;;;23.66;29.85;95162.47;5032653;28;904;-69
2023/02/21 11:18:01;;;;;;;;;;;;;;;23.66;29.90;95158.97;5027241;28;1076;-69
2023/02/21 11:20:27;;;;;;;;;;;;;;;23.67;30.06;95147.22;5032073;28;1045;-71
2023/02/21 11:22:52;;;;;;;;;;;;;;;23.66;30.08;95145.59;5032647;28;915;-68
2023/02/21 11:25:28;;;;;;;;;;;;;;;23.67;30.03;95139.19;5033000;28;880;-69
2023/02/21 11:28:01;;;;;;;;;;;;;;;23.66;29.92;95140.22;5032489;28;1902;-69
2023/02/21 11:30:27;;;;;;;;;;;;;;;23.65;29.88;95135.91;5022898;28;1078;-69
2023/02/21 11:32:56;;;;;;;;;;;;;;;23.65;29.88;95135.91;5032362;28;940;-68
2023/02/21 11:35:22;;;;;;;;;;;;;;;23.65;29.93;95127.88;5032247;28;874;-69
2023/02/21 11:37:49;;;;;;;;;;;;;;;23.64;29.96;95120.88;5032692;28;880;-69
2023/02/21 11:40:31;;;;;;;;;;;;;;;23.64;30.00;95121.69;5026548;28;1194;-69
2023/02/21 11:43:15;;;;;;;;;;;;;;;23.63;30.06;95119.25;5030024;28;1074;-69
2023/02/21 11:45:46;;;;;;;;;;;;;;;23.63;30.18;95113.91;5034639;28;1370;-69
2023/02/21 11:48:13;;;;;;;;;;;;;;;23.62;29.92;95102.34;5036061;28;1965;-69
2023/02/21 11:50:45;;;;;;;;;;;;;;;23.63;29.90;95101.31;5036038;28;846;-69
2023/02/21 11:53:21;;;;;;;;;;;;;;;23.63;29.97;95101.31;5026405;28;1103;-69
2023/02/21 11:55:56;;;;;;;;;;;;;;;23.63;30.02;95081.75;5035863;28;872;-69
2023/02/21 11:58:43;;;;;;;;;;;;;;;23.63;30.21;95082.56;5035852;28;833;-69
2023/02/21 12:01:13;;;;;;;;;;;;;;;23.64;29.96;95083.38;5034433;28;1309;-69
2023/02/21 12:03:44;;;;;;;;;;;;;;;23.62;30.03;95080.09;5025684;28;1350;-69
2023/02/21 12:06:21;;;;;;;;;;;;;;;23.62;29.95;95077.41;5035268;28;1910;-69
2023/02/21 12:08:47;;;;;;;;;;;;;;;23.61;29.97;95079.28;5035703;28;874;-69
2023/02/21 12:11:15;;;;;;;;;;;;;;;23.61;29.99;95067.75;5035473;28;868;-69
2023/02/21 12:13:40;;;;;;;;;;;;;;;23.58;30.04;95069.84;5034087;28;1222;-69
2023/02/21 12:16:11;;;;;;;;;;;;;;;23.60;30.23;95060.78;5025608;28;1035;-69
2023/02/21 12:19:01;;;;;;;;;;;;;;;23.58;30.09;95059.13;5035453;28;794;-69
2023/02/21 12:21:45;;;;;;;;;;;;;;;23.58;30.14;95047.59;5035224;28;889;-69
2023/02/21 12:24:42;;;;;;;;;;;;;;;23.56;30.14;95045.16;5035256;28;878;-69
2023/02/21 12:27:14;;;;;;;;;;;;;;;23.56;30.26;95047.84;5012991;28;1906;-69
2023/02/21 12:30:02;;;;;;;;;;;;;;;23.53;30.15;95032.19;5033913;28;1364;-69
2023/02/21 12:32:30;;;;;;;;;;;;;;;23.53;30.19;95026.84;5033865;28;1179;-69
2023/02/21 12:35:14;;;;;;;;;;;;;;;23.54;30.04;95020.47;5033567;28;1191;-69
2023/02/21 12:37:48;;;;;;;;;;;;;;;23.53;30.22;95026.03;5025597;28;1064;-70
2023/02/21 12:40:19;;;;;;;;;;;;;;;23.50;30.41;95029.97;5034718;28;1217;-70
2023/02/21 12:42:44;;;;;;;;;;;;;;;23.51;30.19;95014.75;5035085;28;785;-69
2023/02/21 12:45:21;;;;;;;;;;;;;;;23.47;30.14;95019.69;5033602;28;1407;-69
2023/02/21 12:47:55;;;;;;;;;;;;;;;23.49;30.58;95027.53;5035114;28;1978;-69
2023/02/21 12:50:23;;;;;;;;;;;;;;;23.47;30.45;95013.53;5024984;28;1080;-69
2023/02/21 12:53:07;;;;;;;;;;;;;;;23.48;30.34;95018.69;5034302;28;872;-69
2023/02/21 12:55:37;;;;;;;;;;;;;;;23.47;30.50;95013.53;5034988;28;892;-69
2023/02/21 12:58:21;;;;;;;;;;;;;;;23.44;30.33;95006.75;5033055;28;1171;-70
2023/02/21 13:00:48;;;;;;;;;;;;;;;23.42;30.58;95006.16;5024669;28;1076;-69
2023/02/21 13:03:33;;;;;;;;;;;;;;;23.42;30.37;95010.69;5033082;28;1239;-70
2023/02/21 13:06:03;;;;;;;;;;;;;;;23.46;30.41;95010.03;5034285;28;1969;-70
2023/02/21 13:08:31;;;;;;;;;;;;;;;23.42;30.50;95011.50;5033062;28;1162;-70
2023/02/21 13:11:08;;;;;;;;;;;;;;;23.43;30.40;95015.84;5030337;28;1197;-69
2023/02/21 13:13:34;;;;;;;;;;;;;;;23.41;30.38;95017.91;5028067;28;1464;-70
2023/02/21 13:16:04;;;;;;;;;;;;;;;23.41;30.37;95004.53;5034658;28;828;-70
2023/02/21 13:18:32;;;;;;;;;;;;;;;23.41;30.43;94996.50;5034617;28;856;-69
2023/02/21 13:20:58;;;;;;;;;;;;;;;23.42;30.45;94995.44;5034227;28;840;-70
2023/02/21 13:23:42;;;;;;;;;;;;;;;23.39;30.60;94989.72;5024340;28;1114;-70
2023/02/21 13:26:07;;;;;;;;;;;;;;;23.39;30.71;94990.53;5034111;28;1898;-71
2023/02/21 13:28:37;;;;;;;;;;;;;;;23.40;30.42;94996.75;5032828;28;1358;-70
2023/02/21 13:31:04;;;;;;;;;;;;;;;23.39;30.46;94990.53;5034135;28;817;-70
2023/02/21 13:33:45;;;;;;;;;;;;;;;23.41;30.63;94993.00;5033606;28;885;-70
2023/02/21 13:36:16;;;;;;;;;;;;;;;23.41;30.51;94993.00;5028759;28;1106;-70
2023/02/21 13:38:41;;;;;;;;;;;;;;;23.39;30.53;94987.88;5032697;28;1198;-70
2023/02/21 13:41:09;;;;;;;;;;;;;;;23.38;30.84;94978.22;5033001;28;1344;-70
2023/02/21 13:43:35;;;;;;;;;;;;;;;23.40;30.63;94978.81;5033939;28;817;-70
2023/02/21 13:46:19;;;;;;;;;;;;;;;23.41;30.55;94979.63;5023028;28;1955;-70
2023/02/21 13:48:44;;;;;;;;;;;;;;;23.38;30.53;94970.19;5034419;28;829;-71
2023/02/21 13:51:29;;;;;;;;;;;;;;;23.38;30.49;94967.50;5034277;28;809;-71
2023/02/21 13:54:11;;;;;;;;;;;;;;;23.37;30.66;94971.22;5035393;28;1202;-70
2023/02/21 13:56:41;;;;;;;;;;;;;;;23.39;30.62;94969.13;5028873;28;1181;-71
2023/02/21 13:59:21;;;;;;;;;;;;;;;23.35;30.73;94963.41;5030179;28;1259;-69
2023/02/21 14:01:49;;;;;;;;;;;;;;;23.35;30.56;94960.72;5036198;28;785;-70
2023/02/21 14:04:52;;;;;;;;;;;;;;;23.38;30.53;94961.34;5035945;28;1369;-70
2023/02/21 14:07:38;;;;;;;;;;;;;;;23.34;30.55;94964.47;4994943;28;1960;-70
2023/02/21 14:10:03;;;;;;;;;;;;;;;23.40;30.72;94959.25;5003516;28;1399;-71
2023/02/21 14:12:30;;;;;;;;;;;;;;;23.44;30.31;94960.44;5015821;28;1269;-70
2023/02/21 14:15:05;;;;;;;;;;;;;;;23.44;30.37;94955.88;5033538;28;877;-71
2023/02/21 14:17:31;;;;;;;;;;;;;;;23.41;30.40;94956.34;5033189;28;896;-70
2023/02/21 14:19:58;;;;;;;;;;;;;;;23.35;30.59;94958.06;5023676;28;983;-71
2023/02/21 14:22:25;;;;;;;;;;;;;;;23.34;30.79;94955.63;5032940;28;964;-71
2023/02/21 14:25:02;;;;;;;;;;;;;;;23.38;30.76;94956.78;5032973;28;817;-71
2023/02/21 14:27:27;;;;;;;;;;;;;;;23.44;30.58;94957.75;5033305;28;1894;-71
2023/02/21 14:30:01;;;;;;;;;;;;;;;23.37;30.77;94955.16;5033161;28;814;-71
2023/02/21 14:32:31;;;;;;;;;;;;;;;23.39;30.67;94953.06;5023476;28;1143;-71
2023/02/21 14:34:57;;;;;;;;;;;;;;;23.37;30.75;94954.31;5031855;28;1560;-70
2023/02/21 14:37:23;;;;;;;;;;;;;;;23.34;30.64;94951.06;5033177;28;781;-70
2023/02/21 14:39:50;;;;;;;;;;;;;;;23.32;30.69;94952.34;5033160;28;939;-71
2023/02/21 14:42:25;;;;;;;;;;;;;;;23.42;30.56;94952.63;5028260;28;1063;-70
2023/02/21 14:45:17;;;;;;;;;;;;;;;23.38;30.74;94956.78;5030793;28;1100;-71
2023/02/21 14:48:02;;;;;;;;;;;;;;;23.38;30.61;94950.63;5024820;28;1894;-71
2023/02/21 14:50:36;;;;;;;;;;;;;;;23.37;30.78;94946.28;5033058;28;881;-71
2023/02/21 14:53:01;;;;;;;;;;;;;;;23.37;30.62;94943.63;5032105;28;882;-71
2023/02/21 14:55:26;;;;;;;;;;;;;;;23.43;30.57;94940.88;5023941;28;1134;-71
2023/02/21 14:58:30;;;;;;;;;;;;;;;23.37;30.48;94955.16;5031554;28;1198;-71
2023/02/21 15:01:01;;;;;;;;;;;;;;;23.31;30.85;94951.53;5010978;28;1353;-70
2023/02/21 15:03:29;;;;;;;;;;;;;;;23.30;30.84;94946.38;5010885;28;1204;-71
2023/02/21 15:06:18;;;;;;;;;;;;;;;23.32;30.80;94955.84;5002435;28;1459;-71
2023/02/21 15:08:45;;;;;;;;;;;;;;;23.33;30.70;94943.25;5031521;28;1304;-71
2023/02/21 15:11:19;;;;;;;;;;;;;;;23.30;30.85;94944.53;5031648;28;1423;-71
2023/02/21 15:13:45;;;;;;;;;;;;;;;23.30;30.75;94943.72;5032722;28;951;-71
2023/02/21 15:16:12;;;;;;;;;;;;;;;23.32;30.76;94947.00;5029280;28;1067;-71
2023/02/21 15:18:59;;;;;;;;;;;;;;;23.30;30.87;94938.34;5031304;28;1126;-71
2023/02/21 15:21:24;;;;;;;;;;;;;;;23.33;30.77;94943.25;5036835;28;881;-71
2023/02/21 15:24:00;;;;;;;;;;;;;;;23.32;30.87;94947.00;5035031;28;1543;-71
2023/02/21 15:26:30;;;;;;;;;;;;;;;23.32;30.74;94947.00;5036190;28;1895;-71